sensor_id;sensor_type;location;lat;lon;timestamp;P1;durP1;ratioP1;P2;durP2;ratioP2
58137;SDS011;43955;47.362;18.930;2022-12-18T00:03:53;36.60;;;12.80;;
58137;SDS011;43955;47.362;18.930;2022-12-18T00:06:21;34.47;;;12.85;;
58137;SDS011;43955;47.362;18.930;2022-12-18T00:08:49;34.53;;;13.23;;
58137;SDS011;43955;47.362;18.930;2022-12-18T00:11:18;34.10;;;13.20;;
58137;SDS011;43955;47.362;18.930;2022-12-18T00:13:47;32.15;;;12.65;;
58137;SDS011;43955;47.362;18.930;2022-12-18T00:16:16;33.42;;;14.57;;
58137;SDS011;43955;47.362;18.930;2022-12-18T00:18:48;33.13;;;11.75;;
58137;SDS011;43955;47.362;18.930;2022-12-18T00:21:15;33.67;;;13.70;;
58137;SDS011;43955;47.362;18.930;2022-12-18T00:23:43;39.40;;;12.95;;
58137;SDS011;43955;47.362;18.930;2022-12-18T00:26:21;27.65;;;12.63;;
58137;SDS011;43955;47.362;18.930;2022-12-18T00:28:51;36.95;;;13.65;;
58137;SDS011;43955;47.362;18.930;2022-12-18T00:31:20;34.13;;;12.27;;
58137;SDS011;43955;47.362;18.930;2022-12-18T00:33:48;36.15;;;13.52;;
58137;SDS011;43955;47.362;18.930;2022-12-18T00:36:22;38.38;;;13.68;;
58137;SDS011;43955;47.362;18.930;2022-12-18T00:38:51;32.90;;;12.25;;
58137;SDS011;43955;47.362;18.930;2022-12-18T00:41:20;41.88;;;14.90;;
58137;SDS011;43955;47.362;18.930;2022-12-18T00:44:07;40.22;;;14.02;;
58137;SDS011;43955;47.362;18.930;2022-12-18T00:46:35;36.85;;;14.13;;
58137;SDS011;43955;47.362;18.930;2022-12-18T00:49:03;29.98;;;12.95;;
58137;SDS011;43955;47.362;18.930;2022-12-18T00:51:31;33.20;;;12.20;;
58137;SDS011;43955;47.362;18.930;2022-12-18T00:53:58;38.20;;;13.18;;
58137;SDS011;43955;47.362;18.930;2022-12-18T00:56:25;43.92;;;13.62;;
58137;SDS011;43955;47.362;18.930;2022-12-18T00:58:53;41.35;;;12.77;;
58137;SDS011;43955;47.362;18.930;2022-12-18T01:01:20;37.72;;;13.30;;
58137;SDS011;43955;47.362;18.930;2022-12-18T01:03:47;32.40;;;12.93;;
58137;SDS011;43955;47.362;18.930;2022-12-18T01:06:15;36.80;;;12.85;;
58137;SDS011;43955;47.362;18.930;2022-12-18T01:08:43;33.38;;;12.23;;
58137;SDS011;43955;47.362;18.930;2022-12-18T01:11:16;35.40;;;11.82;;
58137;SDS011;43955;47.362;18.930;2022-12-18T01:13:44;35.03;;;12.50;;
58137;SDS011;43955;47.362;18.930;2022-12-18T01:16:12;40.05;;;13.02;;
58137;SDS011;43955;47.362;18.930;2022-12-18T01:18:40;36.97;;;14.38;;
58137;SDS011;43955;47.362;18.930;2022-12-18T01:21:09;34.35;;;12.37;;
58137;SDS011;43955;47.362;18.930;2022-12-18T01:23:37;33.35;;;12.32;;
58137;SDS011;43955;47.362;18.930;2022-12-18T01:26:09;38.25;;;13.05;;
58137;SDS011;43955;47.362;18.930;2022-12-18T01:28:38;36.78;;;12.93;;
58137;SDS011;43955;47.362;18.930;2022-12-18T01:31:17;35.75;;;12.68;;
58137;SDS011;43955;47.362;18.930;2022-12-18T01:33:49;39.17;;;13.38;;
58137;SDS011;43955;47.362;18.930;2022-12-18T01:36:25;34.17;;;12.88;;
58137;SDS011;43955;47.362;18.930;2022-12-18T01:38:58;39.78;;;12.45;;
58137;SDS011;43955;47.362;18.930;2022-12-18T01:41:27;33.88;;;12.02;;
58137;SDS011;43955;47.362;18.930;2022-12-18T01:52:46;36.35;;;13.85;;
58137;SDS011;43955;47.362;18.930;2022-12-18T01:55:18;43.10;;;13.62;;
58137;SDS011;43955;47.362;18.930;2022-12-18T01:57:47;35.15;;;13.23;;
58137;SDS011;43955;47.362;18.930;2022-12-18T02:00:17;37.85;;;14.50;;
58137;SDS011;43955;47.362;18.930;2022-12-18T02:02:46;33.22;;;12.32;;
58137;SDS011;43955;47.362;18.930;2022-12-18T02:05:16;39.05;;;13.57;;
58137;SDS011;43955;47.362;18.930;2022-12-18T02:07:49;38.45;;;14.10;;
58137;SDS011;43955;47.362;18.930;2022-12-18T02:10:37;30.58;;;12.15;;
58137;SDS011;43955;47.362;18.930;2022-12-18T02:13:21;38.28;;;13.30;;
58137;SDS011;43955;47.362;18.930;2022-12-18T02:19:06;36.17;;;12.93;;
58137;SDS011;43955;47.362;18.930;2022-12-18T02:21:55;34.58;;;12.25;;
58137;SDS011;43955;47.362;18.930;2022-12-18T02:24:33;31.83;;;11.85;;
58137;SDS011;43955;47.362;18.930;2022-12-18T02:27:05;36.03;;;14.85;;
58137;SDS011;43955;47.362;18.930;2022-12-18T02:29:36;43.65;;;16.00;;
58137;SDS011;43955;47.362;18.930;2022-12-18T02:32:11;39.25;;;14.73;;
58137;SDS011;43955;47.362;18.930;2022-12-18T02:34:42;36.50;;;13.20;;
58137;SDS011;43955;47.362;18.930;2022-12-18T02:37:12;37.92;;;13.43;;
58137;SDS011;43955;47.362;18.930;2022-12-18T02:39:43;34.35;;;12.27;;
58137;SDS011;43955;47.362;18.930;2022-12-18T02:42:11;34.88;;;13.25;;
58137;SDS011;43955;47.362;18.930;2022-12-18T02:44:46;38.90;;;13.25;;
58137;SDS011;43955;47.362;18.930;2022-12-18T02:47:16;36.58;;;13.75;;
58137;SDS011;43955;47.362;18.930;2022-12-18T02:50:01;35.22;;;12.65;;
58137;SDS011;43955;47.362;18.930;2022-12-18T03:00:59;34.08;;;12.20;;
58137;SDS011;43955;47.362;18.930;2022-12-18T03:03:37;34.83;;;13.40;;
58137;SDS011;43955;47.362;18.930;2022-12-18T03:06:10;31.75;;;12.90;;
58137;SDS011;43955;47.362;18.930;2022-12-18T03:08:47;33.35;;;12.45;;
58137;SDS011;43955;47.362;18.930;2022-12-18T03:11:18;40.35;;;14.02;;
58137;SDS011;43955;47.362;18.930;2022-12-18T03:14:08;31.85;;;13.80;;
58137;SDS011;43955;47.362;18.930;2022-12-18T03:16:37;48.42;;;17.37;;
58137;SDS011;43955;47.362;18.930;2022-12-18T03:19:10;39.50;;;16.02;;
58137;SDS011;43955;47.362;18.930;2022-12-18T03:21:42;41.88;;;15.65;;
58137;SDS011;43955;47.362;18.930;2022-12-18T03:24:13;33.33;;;15.02;;
58137;SDS011;43955;47.362;18.930;2022-12-18T03:26:42;39.28;;;14.07;;
58137;SDS011;43955;47.362;18.930;2022-12-18T03:29:17;48.50;;;16.20;;
58137;SDS011;43955;47.362;18.930;2022-12-18T03:31:53;40.78;;;15.00;;
58137;SDS011;43955;47.362;18.930;2022-12-18T03:34:33;34.45;;;14.93;;
58137;SDS011;43955;47.362;18.930;2022-12-18T03:37:04;38.42;;;13.90;;
58137;SDS011;43955;47.362;18.930;2022-12-18T03:39:33;45.92;;;17.20;;
58137;SDS011;43955;47.362;18.930;2022-12-18T03:42:10;44.10;;;15.65;;
58137;SDS011;43955;47.362;18.930;2022-12-18T03:44:44;35.88;;;14.35;;
58137;SDS011;43955;47.362;18.930;2022-12-18T03:47:28;40.80;;;14.75;;
58137;SDS011;43955;47.362;18.930;2022-12-18T03:50:05;33.28;;;13.65;;
58137;SDS011;43955;47.362;18.930;2022-12-18T03:52:45;35.47;;;12.85;;
58137;SDS011;43955;47.362;18.930;2022-12-18T03:55:17;37.80;;;14.35;;
58137;SDS011;43955;47.362;18.930;2022-12-18T03:57:45;36.90;;;13.43;;
58137;SDS011;43955;47.362;18.930;2022-12-18T04:00:13;30.27;;;12.88;;
58137;SDS011;43955;47.362;18.930;2022-12-18T04:02:51;31.33;;;13.50;;
58137;SDS011;43955;47.362;18.930;2022-12-18T04:05:19;38.13;;;14.00;;
58137;SDS011;43955;47.362;18.930;2022-12-18T04:07:48;39.20;;;13.75;;
58137;SDS011;43955;47.362;18.930;2022-12-18T04:10:17;39.70;;;13.00;;
58137;SDS011;43955;47.362;18.930;2022-12-18T04:12:45;38.45;;;14.63;;
58137;SDS011;43955;47.362;18.930;2022-12-18T04:15:13;32.17;;;12.77;;
58137;SDS011;43955;47.362;18.930;2022-12-18T04:17:43;30.70;;;13.05;;
58137;SDS011;43955;47.362;18.930;2022-12-18T04:20:15;37.95;;;14.77;;
58137;SDS011;43955;47.362;18.930;2022-12-18T04:22:43;46.85;;;16.27;;
58137;SDS011;43955;47.362;18.930;2022-12-18T04:25:12;43.30;;;16.85;;
58137;SDS011;43955;47.362;18.930;2022-12-18T04:27:43;39.80;;;16.62;;
58137;SDS011;43955;47.362;18.930;2022-12-18T04:30:11;47.90;;;15.55;;
58137;SDS011;43955;47.362;18.930;2022-12-18T04:32:38;52.53;;;16.52;;
58137;SDS011;43955;47.362;18.930;2022-12-18T04:35:08;41.40;;;16.85;;
58137;SDS011;43955;47.362;18.930;2022-12-18T04:37:38;49.03;;;16.85;;
58137;SDS011;43955;47.362;18.930;2022-12-18T04:40:06;50.47;;;17.00;;
58137;SDS011;43955;47.362;18.930;2022-12-18T04:42:36;49.33;;;17.40;;
58137;SDS011;43955;47.362;18.930;2022-12-18T04:45:03;53.10;;;19.70;;
58137;SDS011;43955;47.362;18.930;2022-12-18T04:47:32;46.22;;;17.05;;
58137;SDS011;43955;47.362;18.930;2022-12-18T04:49:59;60.10;;;23.12;;
58137;SDS011;43955;47.362;18.930;2022-12-18T04:52:26;55.12;;;24.12;;
58137;SDS011;43955;47.362;18.930;2022-12-18T04:54:56;43.15;;;17.48;;
58137;SDS011;43955;47.362;18.930;2022-12-18T04:57:24;46.47;;;15.60;;
58137;SDS011;43955;47.362;18.930;2022-12-18T04:59:51;38.83;;;13.05;;
58137;SDS011;43955;47.362;18.930;2022-12-18T05:02:19;40.60;;;13.62;;
58137;SDS011;43955;47.362;18.930;2022-12-18T05:04:46;40.20;;;12.95;;
58137;SDS011;43955;47.362;18.930;2022-12-18T05:07:13;47.83;;;20.58;;
58137;SDS011;43955;47.362;18.930;2022-12-18T05:09:41;58.78;;;21.50;;
58137;SDS011;43955;47.362;18.930;2022-12-18T05:12:08;53.45;;;19.08;;
58137;SDS011;43955;47.362;18.930;2022-12-18T05:14:35;49.67;;;16.73;;
58137;SDS011;43955;47.362;18.930;2022-12-18T05:17:03;46.95;;;16.70;;
58137;SDS011;43955;47.362;18.930;2022-12-18T05:19:30;40.33;;;16.80;;
58137;SDS011;43955;47.362;18.930;2022-12-18T05:21:57;48.97;;;17.08;;
58137;SDS011;43955;47.362;18.930;2022-12-18T05:24:25;57.92;;;18.12;;
58137;SDS011;43955;47.362;18.930;2022-12-18T05:26:52;50.60;;;18.17;;
58137;SDS011;43955;47.362;18.930;2022-12-18T05:29:19;49.95;;;18.42;;
58137;SDS011;43955;47.362;18.930;2022-12-18T05:31:46;61.97;;;20.58;;
58137;SDS011;43955;47.362;18.930;2022-12-18T05:34:14;98.05;;;34.63;;
58137;SDS011;43955;47.362;18.930;2022-12-18T05:36:41;101.20;;;33.00;;
58137;SDS011;43955;47.362;18.930;2022-12-18T05:39:09;99.15;;;33.58;;
58137;SDS011;43955;47.362;18.930;2022-12-18T05:41:36;91.40;;;30.40;;
58137;SDS011;43955;47.362;18.930;2022-12-18T05:44:03;63.80;;;24.58;;
58137;SDS011;43955;47.362;18.930;2022-12-18T05:46:31;50.85;;;19.12;;
58137;SDS011;43955;47.362;18.930;2022-12-18T05:48:59;52.42;;;20.45;;
58137;SDS011;43955;47.362;18.930;2022-12-18T05:51:28;60.20;;;18.67;;
58137;SDS011;43955;47.362;18.930;2022-12-18T05:53:55;55.55;;;20.50;;
58137;SDS011;43955;47.362;18.930;2022-12-18T05:56:22;45.50;;;18.42;;
58137;SDS011;43955;47.362;18.930;2022-12-18T05:58:53;72.35;;;22.05;;
58137;SDS011;43955;47.362;18.930;2022-12-18T06:01:23;68.97;;;22.27;;
58137;SDS011;43955;47.362;18.930;2022-12-18T06:03:52;44.35;;;16.00;;
58137;SDS011;43955;47.362;18.930;2022-12-18T06:06:20;48.17;;;17.75;;
58137;SDS011;43955;47.362;18.930;2022-12-18T06:08:52;76.30;;;23.45;;
58137;SDS011;43955;47.362;18.930;2022-12-18T06:11:21;61.70;;;22.45;;
58137;SDS011;43955;47.362;18.930;2022-12-18T06:13:54;48.40;;;17.62;;
58137;SDS011;43955;47.362;18.930;2022-12-18T06:16:26;38.30;;;14.68;;
58137;SDS011;43955;47.362;18.930;2022-12-18T06:18:57;46.85;;;19.15;;
58137;SDS011;43955;47.362;18.930;2022-12-18T06:21:26;57.58;;;17.55;;
58137;SDS011;43955;47.362;18.930;2022-12-18T06:23:54;57.90;;;18.83;;
58137;SDS011;43955;47.362;18.930;2022-12-18T06:26:21;56.85;;;18.58;;
58137;SDS011;43955;47.362;18.930;2022-12-18T06:28:54;61.00;;;19.65;;
58137;SDS011;43955;47.362;18.930;2022-12-18T06:31:21;57.55;;;21.33;;
58137;SDS011;43955;47.362;18.930;2022-12-18T06:33:48;81.57;;;25.92;;
58137;SDS011;43955;47.362;18.930;2022-12-18T06:36:16;92.88;;;26.60;;
58137;SDS011;43955;47.362;18.930;2022-12-18T06:38:43;100.55;;;32.53;;
58137;SDS011;43955;47.362;18.930;2022-12-18T06:41:12;92.75;;;29.23;;
58137;SDS011;43955;47.362;18.930;2022-12-18T06:43:41;93.85;;;30.90;;
58137;SDS011;43955;47.362;18.930;2022-12-18T06:46:09;105.75;;;32.20;;
58137;SDS011;43955;47.362;18.930;2022-12-18T06:48:37;92.15;;;29.12;;
58137;SDS011;43955;47.362;18.930;2022-12-18T06:51:04;103.07;;;29.20;;
58137;SDS011;43955;47.362;18.930;2022-12-18T06:53:32;83.62;;;26.67;;
58137;SDS011;43955;47.362;18.930;2022-12-18T06:56:03;91.10;;;29.58;;
58137;SDS011;43955;47.362;18.930;2022-12-18T06:58:36;110.53;;;36.22;;
58137;SDS011;43955;47.362;18.930;2022-12-18T07:01:08;93.30;;;34.92;;
58137;SDS011;43955;47.362;18.930;2022-12-18T07:03:37;61.78;;;23.92;;
58137;SDS011;43955;47.362;18.930;2022-12-18T07:06:12;67.87;;;23.05;;
58137;SDS011;43955;47.362;18.930;2022-12-18T07:08:41;65.87;;;24.58;;
58137;SDS011;43955;47.362;18.930;2022-12-18T07:11:08;94.30;;;30.48;;
58137;SDS011;43955;47.362;18.930;2022-12-18T07:13:35;55.60;;;23.33;;
58137;SDS011;43955;47.362;18.930;2022-12-18T07:16:07;52.25;;;21.77;;
58137;SDS011;43955;47.362;18.930;2022-12-18T07:18:44;57.15;;;20.40;;
58137;SDS011;43955;47.362;18.930;2022-12-18T07:21:14;60.65;;;22.58;;
58137;SDS011;43955;47.362;18.930;2022-12-18T07:23:44;78.82;;;27.62;;
58137;SDS011;43955;47.362;18.930;2022-12-18T07:26:16;73.35;;;27.05;;
58137;SDS011;43955;47.362;18.930;2022-12-18T07:28:44;58.97;;;21.40;;
58137;SDS011;43955;47.362;18.930;2022-12-18T07:31:12;71.20;;;23.40;;
58137;SDS011;43955;47.362;18.930;2022-12-18T07:33:42;63.65;;;23.58;;
58137;SDS011;43955;47.362;18.930;2022-12-18T07:36:10;53.72;;;19.52;;
58137;SDS011;43955;47.362;18.930;2022-12-18T07:38:37;64.57;;;21.17;;
58137;SDS011;43955;47.362;18.930;2022-12-18T07:41:05;48.70;;;18.98;;
58137;SDS011;43955;47.362;18.930;2022-12-18T07:43:34;50.17;;;19.98;;
58137;SDS011;43955;47.362;18.930;2022-12-18T07:46:02;61.55;;;22.70;;
58137;SDS011;43955;47.362;18.930;2022-12-18T07:48:29;50.58;;;19.92;;
58137;SDS011;43955;47.362;18.930;2022-12-18T07:51:00;54.15;;;19.33;;
58137;SDS011;43955;47.362;18.930;2022-12-18T07:53:29;52.42;;;18.70;;
58137;SDS011;43955;47.362;18.930;2022-12-18T07:55:58;52.97;;;20.70;;
58137;SDS011;43955;47.362;18.930;2022-12-18T07:58:46;48.67;;;18.35;;
58137;SDS011;43955;47.362;18.930;2022-12-18T08:01:14;44.63;;;18.02;;
58137;SDS011;43955;47.362;18.930;2022-12-18T08:03:43;46.22;;;19.58;;
58137;SDS011;43955;47.362;18.930;2022-12-18T08:06:10;48.80;;;18.30;;
58137;SDS011;43955;47.362;18.930;2022-12-18T08:08:37;52.10;;;18.65;;
58137;SDS011;43955;47.362;18.930;2022-12-18T08:11:04;43.67;;;17.17;;
58137;SDS011;43955;47.362;18.930;2022-12-18T08:13:31;50.80;;;18.48;;
58137;SDS011;43955;47.362;18.930;2022-12-18T08:15:59;52.20;;;18.87;;
58137;SDS011;43955;47.362;18.930;2022-12-18T08:18:35;55.53;;;19.40;;
58137;SDS011;43955;47.362;18.930;2022-12-18T08:21:19;52.30;;;19.12;;
58137;SDS011;43955;47.362;18.930;2022-12-18T08:23:50;49.03;;;17.85;;
58137;SDS011;43955;47.362;18.930;2022-12-18T08:26:19;46.13;;;17.02;;
58137;SDS011;43955;47.362;18.930;2022-12-18T08:28:48;47.80;;;17.33;;
58137;SDS011;43955;47.362;18.930;2022-12-18T08:31:17;47.97;;;17.87;;
58137;SDS011;43955;47.362;18.930;2022-12-18T08:33:45;42.17;;;15.90;;
58137;SDS011;43955;47.362;18.930;2022-12-18T08:36:12;52.35;;;19.02;;
58137;SDS011;43955;47.362;18.930;2022-12-18T08:38:40;52.33;;;20.12;;
58137;SDS011;43955;47.362;18.930;2022-12-18T08:41:08;56.15;;;19.25;;
58137;SDS011;43955;47.362;18.930;2022-12-18T08:43:37;45.60;;;16.83;;
58137;SDS011;43955;47.362;18.930;2022-12-18T08:46:24;46.92;;;17.87;;
58137;SDS011;43955;47.362;18.930;2022-12-18T08:48:53;48.85;;;18.45;;
58137;SDS011;43955;47.362;18.930;2022-12-18T08:51:22;38.72;;;16.50;;
58137;SDS011;43955;47.362;18.930;2022-12-18T08:53:49;44.80;;;17.37;;
58137;SDS011;43955;47.362;18.930;2022-12-18T08:56:16;53.90;;;17.85;;
58137;SDS011;43955;47.362;18.930;2022-12-18T08:58:45;59.00;;;22.30;;
58137;SDS011;43955;47.362;18.930;2022-12-18T09:01:13;50.88;;;19.45;;
58137;SDS011;43955;47.362;18.930;2022-12-18T09:03:40;50.08;;;19.25;;
58137;SDS011;43955;47.362;18.930;2022-12-18T09:06:08;42.62;;;17.20;;
58137;SDS011;43955;47.362;18.930;2022-12-18T09:08:36;47.05;;;18.15;;
58137;SDS011;43955;47.362;18.930;2022-12-18T09:11:04;49.65;;;18.48;;
58137;SDS011;43955;47.362;18.930;2022-12-18T09:13:31;46.80;;;18.92;;
58137;SDS011;43955;47.362;18.930;2022-12-18T09:15:58;49.50;;;18.27;;
58137;SDS011;43955;47.362;18.930;2022-12-18T09:18:25;39.75;;;16.48;;
58137;SDS011;43955;47.362;18.930;2022-12-18T09:20:52;61.63;;;19.90;;
58137;SDS011;43955;47.362;18.930;2022-12-18T09:23:20;39.88;;;17.60;;
58137;SDS011;43955;47.362;18.930;2022-12-18T09:25:48;50.70;;;18.42;;
58137;SDS011;43955;47.362;18.930;2022-12-18T09:28:18;40.30;;;17.00;;
58137;SDS011;43955;47.362;18.930;2022-12-18T09:30:47;49.85;;;18.23;;
58137;SDS011;43955;47.362;18.930;2022-12-18T09:33:16;41.30;;;16.90;;
58137;SDS011;43955;47.362;18.930;2022-12-18T09:35:44;45.10;;;17.08;;
58137;SDS011;43955;47.362;18.930;2022-12-18T09:38:17;45.10;;;15.65;;
58137;SDS011;43955;47.362;18.930;2022-12-18T09:40:46;42.33;;;17.58;;
58137;SDS011;43955;47.362;18.930;2022-12-18T09:43:20;55.22;;;19.33;;
58137;SDS011;43955;47.362;18.930;2022-12-18T09:45:52;47.33;;;19.73;;
58137;SDS011;43955;47.362;18.930;2022-12-18T09:48:27;54.42;;;20.25;;
58137;SDS011;43955;47.362;18.930;2022-12-18T09:51:00;51.05;;;18.48;;
58137;SDS011;43955;47.362;18.930;2022-12-18T09:53:31;50.08;;;19.75;;
58137;SDS011;43955;47.362;18.930;2022-12-18T09:56:00;50.10;;;20.55;;
58137;SDS011;43955;47.362;18.930;2022-12-18T10:00:56;56.20;;;19.98;;
58137;SDS011;43955;47.362;18.930;2022-12-18T10:03:24;51.22;;;18.65;;
58137;SDS011;43955;47.362;18.930;2022-12-18T10:08:37;50.30;;;19.40;;
58137;SDS011;43955;47.362;18.930;2022-12-18T10:14:41;48.30;;;18.62;;
58137;SDS011;43955;47.362;18.930;2022-12-18T10:19:45;44.13;;;17.60;;
58137;SDS011;43955;47.362;18.930;2022-12-18T10:22:39;79.22;;;19.42;;
58137;SDS011;43955;47.362;18.930;2022-12-18T10:26:03;45.95;;;17.75;;
58137;SDS011;43955;47.362;18.930;2022-12-18T10:28:32;49.15;;;18.25;;
58137;SDS011;43955;47.362;18.930;2022-12-18T10:31:01;46.00;;;18.42;;
58137;SDS011;43955;47.362;18.930;2022-12-18T10:33:29;52.78;;;18.23;;
58137;SDS011;43955;47.362;18.930;2022-12-18T10:35:58;44.88;;;17.17;;
58137;SDS011;43955;47.362;18.930;2022-12-18T10:38:28;46.53;;;17.90;;
58137;SDS011;43955;47.362;18.930;2022-12-18T10:40:57;42.47;;;18.05;;
58137;SDS011;43955;47.362;18.930;2022-12-18T10:48:36;50.28;;;18.08;;
58137;SDS011;43955;47.362;18.930;2022-12-18T10:51:28;49.05;;;19.90;;
58137;SDS011;43955;47.362;18.930;2022-12-18T10:54:02;41.03;;;19.58;;
58137;SDS011;43955;47.362;18.930;2022-12-18T10:56:33;53.33;;;22.90;;
58137;SDS011;43955;47.362;18.930;2022-12-18T10:59:02;45.20;;;17.92;;
58137;SDS011;43955;47.362;18.930;2022-12-18T11:01:48;46.63;;;18.55;;
58137;SDS011;43955;47.362;18.930;2022-12-18T11:04:17;49.30;;;20.15;;
58137;SDS011;43955;47.362;18.930;2022-12-18T11:09:32;40.25;;;15.55;;
58137;SDS011;43955;47.362;18.930;2022-12-18T11:14:47;50.38;;;19.60;;
58137;SDS011;43955;47.362;18.930;2022-12-18T11:17:19;43.42;;;15.68;;
58137;SDS011;43955;47.362;18.930;2022-12-18T11:19:52;35.08;;;14.52;;
58137;SDS011;43955;47.362;18.930;2022-12-18T11:22:23;34.47;;;14.32;;
58137;SDS011;43955;47.362;18.930;2022-12-18T11:24:59;40.35;;;15.70;;
58137;SDS011;43955;47.362;18.930;2022-12-18T11:27:55;44.13;;;16.05;;
58137;SDS011;43955;47.362;18.930;2022-12-18T11:30:34;42.10;;;14.23;;
58137;SDS011;43955;47.362;18.930;2022-12-18T11:33:08;41.00;;;16.17;;
58137;SDS011;43955;47.362;18.930;2022-12-18T11:35:48;42.90;;;16.12;;
58137;SDS011;43955;47.362;18.930;2022-12-18T11:38:24;46.67;;;14.60;;
58137;SDS011;43955;47.362;18.930;2022-12-18T11:40:58;40.08;;;16.15;;
58137;SDS011;43955;47.362;18.930;2022-12-18T11:43:41;35.97;;;16.60;;
58137;SDS011;43955;47.362;18.930;2022-12-18T11:46:13;41.20;;;15.90;;
58137;SDS011;43955;47.362;18.930;2022-12-18T11:51:30;37.03;;;14.90;;
58137;SDS011;43955;47.362;18.930;2022-12-18T11:54:11;52.00;;;15.55;;
58137;SDS011;43955;47.362;18.930;2022-12-18T11:56:46;39.55;;;16.62;;
58137;SDS011;43955;47.362;18.930;2022-12-18T12:10:35;33.60;;;14.15;;
58137;SDS011;43955;47.362;18.930;2022-12-18T12:18:37;36.65;;;15.32;;
58137;SDS011;43955;47.362;18.930;2022-12-18T12:23:55;36.72;;;15.32;;
58137;SDS011;43955;47.362;18.930;2022-12-18T12:26:33;34.58;;;13.38;;
58137;SDS011;43955;47.362;18.930;2022-12-18T12:32:20;45.28;;;15.98;;
58137;SDS011;43955;47.362;18.930;2022-12-18T12:40:49;30.25;;;13.35;;
58137;SDS011;43955;47.362;18.930;2022-12-18T12:43:38;35.10;;;14.05;;
58137;SDS011;43955;47.362;18.930;2022-12-18T12:46:17;37.20;;;14.87;;
58137;SDS011;43955;47.362;18.930;2022-12-18T12:51:38;44.17;;;15.40;;
58137;SDS011;43955;47.362;18.930;2022-12-18T12:54:21;33.67;;;12.95;;
58137;SDS011;43955;47.362;18.930;2022-12-18T13:00:04;40.92;;;15.93;;
58137;SDS011;43955;47.362;18.930;2022-12-18T13:05:14;47.05;;;16.50;;
58137;SDS011;43955;47.362;18.930;2022-12-18T13:08:07;70.87;;;23.80;;
58137;SDS011;43955;47.362;18.930;2022-12-18T13:10:40;45.00;;;17.75;;
58137;SDS011;43955;47.362;18.930;2022-12-18T13:13:09;41.13;;;16.35;;
58137;SDS011;43955;47.362;18.930;2022-12-18T13:15:38;40.70;;;17.15;;
58137;SDS011;43955;47.362;18.930;2022-12-18T13:20:37;46.95;;;20.62;;
58137;SDS011;43955;47.362;18.930;2022-12-18T13:28:17;46.92;;;17.45;;
58137;SDS011;43955;47.362;18.930;2022-12-18T13:30:49;40.95;;;16.75;;
58137;SDS011;43955;47.362;18.930;2022-12-18T13:40:59;40.20;;;17.17;;
58137;SDS011;43955;47.362;18.930;2022-12-18T13:43:46;45.95;;;17.05;;
58137;SDS011;43955;47.362;18.930;2022-12-18T13:48:55;65.72;;;22.25;;
58137;SDS011;43955;47.362;18.930;2022-12-18T13:51:28;45.22;;;17.05;;
58137;SDS011;43955;47.362;18.930;2022-12-18T13:54:01;100.72;;;21.08;;
58137;SDS011;43955;47.362;18.930;2022-12-18T13:56:45;48.67;;;19.20;;
58137;SDS011;43955;47.362;18.930;2022-12-18T13:59:15;61.22;;;19.23;;
58137;SDS011;43955;47.362;18.930;2022-12-18T14:01:45;58.75;;;21.15;;
58137;SDS011;43955;47.362;18.930;2022-12-18T14:04:27;65.68;;;23.12;;
58137;SDS011;43955;47.362;18.930;2022-12-18T14:09:40;95.43;;;25.98;;
58137;SDS011;43955;47.362;18.930;2022-12-18T14:12:28;80.10;;;24.95;;
58137;SDS011;43955;47.362;18.930;2022-12-18T14:17:56;98.80;;;34.70;;
58137;SDS011;43955;47.362;18.930;2022-12-18T14:20:25;93.43;;;28.30;;
58137;SDS011;43955;47.362;18.930;2022-12-18T14:22:54;120.22;;;36.50;;
58137;SDS011;43955;47.362;18.930;2022-12-18T14:25:25;137.27;;;39.95;;
58137;SDS011;43955;47.362;18.930;2022-12-18T14:30:39;145.02;;;40.40;;
58137;SDS011;43955;47.362;18.930;2022-12-18T14:35:36;129.77;;;39.42;;
58137;SDS011;43955;47.362;18.930;2022-12-18T14:38:26;135.82;;;42.80;;
58137;SDS011;43955;47.362;18.930;2022-12-18T14:41:01;82.72;;;31.48;;
58137;SDS011;43955;47.362;18.930;2022-12-18T14:43:34;98.47;;;34.50;;
58137;SDS011;43955;47.362;18.930;2022-12-18T14:46:03;119.40;;;41.28;;
58137;SDS011;43955;47.362;18.930;2022-12-18T14:51:16;120.72;;;43.45;;
58137;SDS011;43955;47.362;18.930;2022-12-18T14:56:35;119.53;;;39.55;;
58137;SDS011;43955;47.362;18.930;2022-12-18T14:59:04;80.55;;;27.05;;
58137;SDS011;43955;47.362;18.930;2022-12-18T15:01:37;105.65;;;34.95;;
58137;SDS011;43955;47.362;18.930;2022-12-18T15:04:20;100.18;;;32.08;;
58137;SDS011;43955;47.362;18.930;2022-12-18T15:07:09;111.78;;;38.80;;
58137;SDS011;43955;47.362;18.930;2022-12-18T15:09:38;103.57;;;34.55;;
58137;SDS011;43955;47.362;18.930;2022-12-18T15:12:19;89.82;;;29.98;;
58137;SDS011;43955;47.362;18.930;2022-12-18T15:14:53;107.30;;;36.53;;
58137;SDS011;43955;47.362;18.930;2022-12-18T15:17:22;77.40;;;29.95;;
58137;SDS011;43955;47.362;18.930;2022-12-18T15:19:52;83.30;;;32.00;;
58137;SDS011;43955;47.362;18.930;2022-12-18T15:24:52;69.68;;;27.15;;
58137;SDS011;43955;47.362;18.930;2022-12-18T15:27:22;126.62;;;42.70;;
58137;SDS011;43955;47.362;18.930;2022-12-18T15:32:35;115.22;;;37.95;;
58137;SDS011;43955;47.362;18.930;2022-12-18T15:37:39;74.97;;;29.50;;
58137;SDS011;43955;47.362;18.930;2022-12-18T15:40:11;73.78;;;27.48;;
58137;SDS011;43955;47.362;18.930;2022-12-18T15:42:39;112.07;;;40.45;;
58137;SDS011;43955;47.362;18.930;2022-12-18T15:45:26;123.85;;;41.67;;
58137;SDS011;43955;47.362;18.930;2022-12-18T15:47:53;106.18;;;36.47;;
58137;SDS011;43955;47.362;18.930;2022-12-18T15:50:21;116.88;;;39.75;;
58137;SDS011;43955;47.362;18.930;2022-12-18T15:52:49;144.23;;;46.50;;
58137;SDS011;43955;47.362;18.930;2022-12-18T15:55:21;146.20;;;46.88;;
58137;SDS011;43955;47.362;18.930;2022-12-18T15:58:09;107.90;;;39.00;;
58137;SDS011;43955;47.362;18.930;2022-12-18T16:00:38;114.62;;;37.17;;
58137;SDS011;43955;47.362;18.930;2022-12-18T16:03:07;138.18;;;51.58;;
58137;SDS011;43955;47.362;18.930;2022-12-18T16:05:35;214.38;;;71.25;;
58137;SDS011;43955;47.362;18.930;2022-12-18T16:08:02;133.50;;;45.63;;
58137;SDS011;43955;47.362;18.930;2022-12-18T16:10:30;87.22;;;32.47;;
58137;SDS011;43955;47.362;18.930;2022-12-18T16:12:57;121.15;;;42.83;;
58137;SDS011;43955;47.362;18.930;2022-12-18T16:15:24;145.02;;;37.75;;
58137;SDS011;43955;47.362;18.930;2022-12-18T16:17:52;103.10;;;31.37;;
58137;SDS011;43955;47.362;18.930;2022-12-18T16:20:20;66.03;;;27.50;;
58137;SDS011;43955;47.362;18.930;2022-12-18T16:22:48;80.93;;;33.28;;
58137;SDS011;43955;47.362;18.930;2022-12-18T16:25:20;115.22;;;42.03;;
58137;SDS011;43955;47.362;18.930;2022-12-18T16:27:48;153.00;;;52.65;;
58137;SDS011;43955;47.362;18.930;2022-12-18T16:30:18;127.62;;;54.17;;
58137;SDS011;43955;47.362;18.930;2022-12-18T16:32:47;263.08;;;93.68;;
58137;SDS011;43955;47.362;18.930;2022-12-18T16:35:15;191.00;;;72.30;;
58137;SDS011;43955;47.362;18.930;2022-12-18T16:37:43;110.57;;;42.88;;
58137;SDS011;43955;47.362;18.930;2022-12-18T16:40:11;136.85;;;50.83;;